sensor_id;sensor_type;location;lat;lon;timestamp;P1;durP1;ratioP1;P2;durP2;ratioP2
66633;SDS011;53546;52.184;5.596;2023-02-12T00:01:12;2.85;;;2.33;;
66633;SDS011;53546;52.184;5.596;2023-02-12T00:03:38;5.35;;;3.10;;
66633;SDS011;53546;52.184;5.596;2023-02-12T00:06:05;3.15;;;2.47;;
66633;SDS011;53546;52.184;5.596;2023-02-12T00:08:31;3.20;;;2.53;;
66633;SDS011;53546;52.184;5.596;2023-02-12T00:10:56;4.85;;;2.47;;
66633;SDS011;53546;52.184;5.596;2023-02-12T00:13:22;3.38;;;2.40;;
66633;SDS011;53546;52.184;5.596;2023-02-12T00:15:48;5.05;;;2.63;;
66633;SDS011;53546;52.184;5.596;2023-02-12T00:18:13;3.63;;;2.42;;
66633;SDS011;53546;52.184;5.596;2023-02-12T00:20:38;4.55;;;2.67;;
66633;SDS011;53546;52.184;5.596;2023-02-12T00:23:04;5.18;;;3.00;;
66633;SDS011;53546;52.184;5.596;2023-02-12T00:25:30;5.38;;;2.80;;
66633;SDS011;53546;52.184;5.596;2023-02-12T00:27:55;5.00;;;2.60;;
66633;SDS011;53546;52.184;5.596;2023-02-12T00:30:21;4.78;;;2.60;;
66633;SDS011;53546;52.184;5.596;2023-02-12T00:32:46;3.30;;;2.58;;
66633;SDS011;53546;52.184;5.596;2023-02-12T00:35:12;5.28;;;2.72;;
66633;SDS011;53546;52.184;5.596;2023-02-12T00:37:37;4.05;;;2.67;;
66633;SDS011;53546;52.184;5.596;2023-02-12T00:40:03;3.90;;;2.70;;
66633;SDS011;53546;52.184;5.596;2023-02-12T00:42:29;3.90;;;2.70;;
66633;SDS011;53546;52.184;5.596;2023-02-12T00:44:55;5.22;;;3.15;;
66633;SDS011;53546;52.184;5.596;2023-02-12T00:47:20;4.07;;;3.03;;
66633;SDS011;53546;52.184;5.596;2023-02-12T00:49:45;3.75;;;2.70;;
66633;SDS011;53546;52.184;5.596;2023-02-12T00:52:11;5.30;;;3.00;;
66633;SDS011;53546;52.184;5.596;2023-02-12T00:54:36;5.10;;;2.70;;
66633;SDS011;53546;52.184;5.596;2023-02-12T00:57:01;4.47;;;2.60;;
66633;SDS011;53546;52.184;5.596;2023-02-12T00:59:27;2.90;;;2.38;;
66633;SDS011;53546;52.184;5.596;2023-02-12T01:01:53;2.85;;;2.53;;
66633;SDS011;53546;52.184;5.596;2023-02-12T01:04:19;3.30;;;2.70;;
66633;SDS011;53546;52.184;5.596;2023-02-12T01:06:45;3.90;;;2.75;;
66633;SDS011;53546;52.184;5.596;2023-02-12T01:09:10;3.95;;;2.42;;
66633;SDS011;53546;52.184;5.596;2023-02-12T01:11:36;4.65;;;2.85;;
66633;SDS011;53546;52.184;5.596;2023-02-12T01:14:02;4.32;;;2.55;;
66633;SDS011;53546;52.184;5.596;2023-02-12T01:16:27;4.40;;;2.72;;
66633;SDS011;53546;52.184;5.596;2023-02-12T01:18:55;4.53;;;2.65;;
66633;SDS011;53546;52.184;5.596;2023-02-12T01:21:25;4.88;;;2.90;;
66633;SDS011;53546;52.184;5.596;2023-02-12T01:23:52;3.67;;;2.72;;
66633;SDS011;53546;52.184;5.596;2023-02-12T01:26:18;3.15;;;2.40;;
66633;SDS011;53546;52.184;5.596;2023-02-12T01:28:47;3.95;;;2.58;;
66633;SDS011;53546;52.184;5.596;2023-02-12T01:31:15;4.68;;;2.55;;
66633;SDS011;53546;52.184;5.596;2023-02-12T01:33:42;3.78;;;2.97;;
66633;SDS011;53546;52.184;5.596;2023-02-12T01:36:09;2.63;;;2.38;;
66633;SDS011;53546;52.184;5.596;2023-02-12T01:38:35;3.22;;;2.40;;
66633;SDS011;53546;52.184;5.596;2023-02-12T01:41:01;4.85;;;2.70;;
66633;SDS011;53546;52.184;5.596;2023-02-12T01:43:28;2.67;;;2.35;;
66633;SDS011;53546;52.184;5.596;2023-02-12T01:45:53;5.10;;;2.88;;
66633;SDS011;53546;52.184;5.596;2023-02-12T01:48:19;3.55;;;2.50;;
66633;SDS011;53546;52.184;5.596;2023-02-12T01:50:46;2.70;;;2.50;;
66633;SDS011;53546;52.184;5.596;2023-02-12T01:53:13;3.70;;;2.70;;
66633;SDS011;53546;52.184;5.596;2023-02-12T01:55:44;4.38;;;2.90;;
66633;SDS011;53546;52.184;5.596;2023-02-12T01:58:11;3.70;;;2.50;;
66633;SDS011;53546;52.184;5.596;2023-02-12T02:00:36;3.90;;;2.80;;
66633;SDS011;53546;52.184;5.596;2023-02-12T02:03:03;6.20;;;3.10;;
66633;SDS011;53546;52.184;5.596;2023-02-12T02:05:40;4.07;;;2.70;;
66633;SDS011;53546;52.184;5.596;2023-02-12T02:08:08;3.63;;;2.70;;
66633;SDS011;53546;52.184;5.596;2023-02-12T02:10:34;2.85;;;2.40;;
66633;SDS011;53546;52.184;5.596;2023-02-12T02:12:59;3.70;;;2.63;;
66633;SDS011;53546;52.184;5.596;2023-02-12T02:15:45;4.63;;;3.00;;
66633;SDS011;53546;52.184;5.596;2023-02-12T02:18:23;5.68;;;3.00;;
66633;SDS011;53546;52.184;5.596;2023-02-12T02:21:08;3.22;;;2.40;;
66633;SDS011;53546;52.184;5.596;2023-02-12T02:32:09;3.65;;;2.60;;
66633;SDS011;53546;52.184;5.596;2023-02-12T02:34:39;4.00;;;2.85;;
66633;SDS011;53546;52.184;5.596;2023-02-12T02:39:42;3.55;;;2.78;;
66633;SDS011;53546;52.184;5.596;2023-02-12T02:45:28;4.25;;;2.90;;
66633;SDS011;53546;52.184;5.596;2023-02-12T02:50:25;3.80;;;2.63;;
66633;SDS011;53546;52.184;5.596;2023-02-12T02:52:54;4.75;;;2.95;;
66633;SDS011;53546;52.184;5.596;2023-02-12T02:55:24;3.45;;;2.70;;
66633;SDS011;53546;52.184;5.596;2023-02-12T02:57:56;3.75;;;2.92;;
66633;SDS011;53546;52.184;5.596;2023-02-12T03:00:26;2.97;;;2.67;;
66633;SDS011;53546;52.184;5.596;2023-02-12T03:03:00;4.45;;;2.92;;
66633;SDS011;53546;52.184;5.596;2023-02-12T03:05:31;4.82;;;2.92;;
66633;SDS011;53546;52.184;5.596;2023-02-12T03:08:02;5.60;;;2.90;;
66633;SDS011;53546;52.184;5.596;2023-02-12T03:10:41;3.10;;;2.80;;
66633;SDS011;53546;52.184;5.596;2023-02-12T03:13:13;3.85;;;2.80;;
66633;SDS011;53546;52.184;5.596;2023-02-12T03:16:10;5.22;;;2.92;;
66633;SDS011;53546;52.184;5.596;2023-02-12T03:18:45;3.78;;;2.92;;
66633;SDS011;53546;52.184;5.596;2023-02-12T03:21:17;4.50;;;2.80;;
66633;SDS011;53546;52.184;5.596;2023-02-12T03:24:14;4.15;;;2.80;;
66633;SDS011;53546;52.184;5.596;2023-02-12T03:26:45;3.85;;;2.92;;
66633;SDS011;53546;52.184;5.596;2023-02-12T03:29:13;3.65;;;3.03;;
66633;SDS011;53546;52.184;5.596;2023-02-12T03:32:01;3.58;;;2.83;;
66633;SDS011;53546;52.184;5.596;2023-02-12T03:34:52;3.65;;;2.90;;
66633;SDS011;53546;52.184;5.596;2023-02-12T03:37:32;3.90;;;3.00;;
66633;SDS011;53546;52.184;5.596;2023-02-12T03:47:50;4.38;;;3.17;;
66633;SDS011;53546;52.184;5.596;2023-02-12T03:50:30;5.00;;;3.10;;
66633;SDS011;53546;52.184;5.596;2023-02-12T03:53:00;3.72;;;3.10;;
66633;SDS011;53546;52.184;5.596;2023-02-12T03:55:25;4.32;;;3.20;;
66633;SDS011;53546;52.184;5.596;2023-02-12T03:57:51;4.50;;;3.15;;
66633;SDS011;53546;52.184;5.596;2023-02-12T04:00:23;3.53;;;2.83;;
66633;SDS011;53546;52.184;5.596;2023-02-12T04:02:50;3.38;;;3.03;;
66633;SDS011;53546;52.184;5.596;2023-02-12T04:05:18;4.40;;;3.17;;
66633;SDS011;53546;52.184;5.596;2023-02-12T04:07:50;4.07;;;2.67;;
66633;SDS011;53546;52.184;5.596;2023-02-12T04:10:16;4.28;;;3.03;;
66633;SDS011;53546;52.184;5.596;2023-02-12T04:12:53;3.33;;;2.95;;
66633;SDS011;53546;52.184;5.596;2023-02-12T04:18:44;4.10;;;3.20;;
66633;SDS011;53546;52.184;5.596;2023-02-12T04:26:50;4.65;;;2.97;;
66633;SDS011;53546;52.184;5.596;2023-02-12T04:29:27;4.05;;;3.00;;
66633;SDS011;53546;52.184;5.596;2023-02-12T04:32:03;3.58;;;3.15;;
66633;SDS011;53546;52.184;5.596;2023-02-12T04:34:34;3.75;;;2.90;;
66633;SDS011;53546;52.184;5.596;2023-02-12T04:37:06;3.72;;;3.03;;
66633;SDS011;53546;52.184;5.596;2023-02-12T04:39:39;5.00;;;2.97;;
66633;SDS011;53546;52.184;5.596;2023-02-12T04:42:05;5.00;;;2.90;;
66633;SDS011;53546;52.184;5.596;2023-02-12T04:44:31;4.63;;;3.08;;
66633;SDS011;53546;52.184;5.596;2023-02-12T04:46:59;4.03;;;2.90;;
66633;SDS011;53546;52.184;5.596;2023-02-12T04:49:24;4.43;;;3.15;;
66633;SDS011;53546;52.184;5.596;2023-02-12T04:51:50;4.47;;;2.90;;
66633;SDS011;53546;52.184;5.596;2023-02-12T04:54:17;6.50;;;3.40;;
66633;SDS011;53546;52.184;5.596;2023-02-12T04:56:44;4.32;;;3.20;;
66633;SDS011;53546;52.184;5.596;2023-02-12T04:59:10;3.42;;;3.13;;
66633;SDS011;53546;52.184;5.596;2023-02-12T05:01:36;5.38;;;3.20;;
66633;SDS011;53546;52.184;5.596;2023-02-12T05:04:02;3.63;;;2.95;;
66633;SDS011;53546;52.184;5.596;2023-02-12T05:06:29;3.95;;;3.22;;
66633;SDS011;53546;52.184;5.596;2023-02-12T05:08:54;4.03;;;3.03;;
66633;SDS011;53546;52.184;5.596;2023-02-12T05:11:20;4.85;;;3.65;;
66633;SDS011;53546;52.184;5.596;2023-02-12T05:13:49;5.03;;;3.10;;
66633;SDS011;53546;52.184;5.596;2023-02-12T05:16:15;5.35;;;3.55;;
66633;SDS011;53546;52.184;5.596;2023-02-12T05:18:41;4.70;;;3.80;;
66633;SDS011;53546;52.184;5.596;2023-02-12T05:21:07;3.97;;;3.58;;
66633;SDS011;53546;52.184;5.596;2023-02-12T05:23:33;4.43;;;3.40;;
66633;SDS011;53546;52.184;5.596;2023-02-12T05:26:01;3.80;;;3.30;;
66633;SDS011;53546;52.184;5.596;2023-02-12T05:28:28;4.85;;;3.17;;
66633;SDS011;53546;52.184;5.596;2023-02-12T05:30:54;4.45;;;3.35;;
66633;SDS011;53546;52.184;5.596;2023-02-12T05:33:19;5.18;;;3.55;;
66633;SDS011;53546;52.184;5.596;2023-02-12T05:35:45;6.22;;;3.60;;
66633;SDS011;53546;52.184;5.596;2023-02-12T05:38:10;3.83;;;3.13;;
66633;SDS011;53546;52.184;5.596;2023-02-12T05:40:35;3.70;;;2.92;;
66633;SDS011;53546;52.184;5.596;2023-02-12T05:43:01;3.60;;;3.08;;
66633;SDS011;53546;52.184;5.596;2023-02-12T05:45:27;5.65;;;3.65;;
66633;SDS011;53546;52.184;5.596;2023-02-12T05:47:53;4.80;;;3.17;;
66633;SDS011;53546;52.184;5.596;2023-02-12T05:50:19;3.63;;;3.10;;
66633;SDS011;53546;52.184;5.596;2023-02-12T05:52:45;4.25;;;3.22;;
66633;SDS011;53546;52.184;5.596;2023-02-12T05:55:10;4.07;;;2.90;;
66633;SDS011;53546;52.184;5.596;2023-02-12T05:57:35;6.53;;;3.50;;
66633;SDS011;53546;52.184;5.596;2023-02-12T06:00:02;4.75;;;3.47;;
66633;SDS011;53546;52.184;5.596;2023-02-12T06:02:29;4.50;;;3.50;;
66633;SDS011;53546;52.184;5.596;2023-02-12T06:04:54;4.43;;;3.22;;
66633;SDS011;53546;52.184;5.596;2023-02-12T06:07:19;4.60;;;3.50;;
66633;SDS011;53546;52.184;5.596;2023-02-12T06:09:45;3.85;;;3.45;;
66633;SDS011;53546;52.184;5.596;2023-02-12T06:12:10;5.35;;;3.20;;
66633;SDS011;53546;52.184;5.596;2023-02-12T06:14:36;4.05;;;3.08;;
66633;SDS011;53546;52.184;5.596;2023-02-12T06:17:01;4.28;;;3.30;;
66633;SDS011;53546;52.184;5.596;2023-02-12T06:19:27;3.22;;;2.85;;
66633;SDS011;53546;52.184;5.596;2023-02-12T06:21:52;5.28;;;3.30;;
66633;SDS011;53546;52.184;5.596;2023-02-12T06:24:18;4.35;;;3.10;;
66633;SDS011;53546;52.184;5.596;2023-02-12T06:26:43;10.02;;;3.22;;
66633;SDS011;53546;52.184;5.596;2023-02-12T06:29:09;4.32;;;2.95;;
66633;SDS011;53546;52.184;5.596;2023-02-12T06:31:35;5.85;;;3.20;;
66633;SDS011;53546;52.184;5.596;2023-02-12T06:34:02;3.33;;;2.85;;
66633;SDS011;53546;52.184;5.596;2023-02-12T06:36:29;4.82;;;3.17;;
66633;SDS011;53546;52.184;5.596;2023-02-12T06:38:55;4.45;;;3.05;;
66633;SDS011;53546;52.184;5.596;2023-02-12T06:41:20;4.43;;;2.92;;
66633;SDS011;53546;52.184;5.596;2023-02-12T06:43:46;3.85;;;2.85;;
66633;SDS011;53546;52.184;5.596;2023-02-12T06:46:12;4.40;;;3.00;;
66633;SDS011;53546;52.184;5.596;2023-02-12T06:48:38;6.95;;;3.00;;
66633;SDS011;53546;52.184;5.596;2023-02-12T06:51:13;3.03;;;2.72;;
66633;SDS011;53546;52.184;5.596;2023-02-12T06:53:39;4.43;;;2.65;;
66633;SDS011;53546;52.184;5.596;2023-02-12T06:56:06;3.55;;;2.80;;
66633;SDS011;53546;52.184;5.596;2023-02-12T06:58:36;3.72;;;2.85;;
66633;SDS011;53546;52.184;5.596;2023-02-12T07:03:37;5.78;;;3.10;;
66633;SDS011;53546;52.184;5.596;2023-02-12T07:06:04;4.35;;;3.10;;
66633;SDS011;53546;52.184;5.596;2023-02-12T07:08:29;7.10;;;2.80;;
66633;SDS011;53546;52.184;5.596;2023-02-12T07:10:55;3.38;;;2.58;;
66633;SDS011;53546;52.184;5.596;2023-02-12T07:13:20;4.75;;;2.95;;
66633;SDS011;53546;52.184;5.596;2023-02-12T07:15:45;4.15;;;3.13;;
66633;SDS011;53546;52.184;5.596;2023-02-12T07:18:11;3.15;;;2.85;;
66633;SDS011;53546;52.184;5.596;2023-02-12T07:20:36;3.67;;;2.55;;
66633;SDS011;53546;52.184;5.596;2023-02-12T07:23:01;4.00;;;2.95;;
66633;SDS011;53546;52.184;5.596;2023-02-12T07:25:27;4.00;;;2.90;;
66633;SDS011;53546;52.184;5.596;2023-02-12T07:27:52;3.85;;;2.92;;
66633;SDS011;53546;52.184;5.596;2023-02-12T07:30:17;7.82;;;3.47;;
66633;SDS011;53546;52.184;5.596;2023-02-12T07:32:43;4.97;;;2.88;;
66633;SDS011;53546;52.184;5.596;2023-02-12T07:35:09;4.70;;;2.92;;
66633;SDS011;53546;52.184;5.596;2023-02-12T07:37:34;5.13;;;2.97;;
66633;SDS011;53546;52.184;5.596;2023-02-12T07:39:59;3.60;;;2.78;;
66633;SDS011;53546;52.184;5.596;2023-02-12T07:42:25;5.03;;;2.80;;
66633;SDS011;53546;52.184;5.596;2023-02-12T07:44:51;3.97;;;2.80;;
66633;SDS011;53546;52.184;5.596;2023-02-12T07:47:16;6.70;;;3.15;;
66633;SDS011;53546;52.184;5.596;2023-02-12T07:49:41;15.05;;;3.38;;
66633;SDS011;53546;52.184;5.596;2023-02-12T07:52:07;4.57;;;3.08;;
66633;SDS011;53546;52.184;5.596;2023-02-12T07:54:32;3.95;;;2.78;;
66633;SDS011;53546;52.184;5.596;2023-02-12T07:56:58;3.60;;;2.90;;
66633;SDS011;53546;52.184;5.596;2023-02-12T07:59:24;5.22;;;2.92;;
66633;SDS011;53546;52.184;5.596;2023-02-12T08:01:50;6.72;;;3.50;;
66633;SDS011;53546;52.184;5.596;2023-02-12T08:04:17;4.22;;;2.92;;
66633;SDS011;53546;52.184;5.596;2023-02-12T08:06:45;7.20;;;3.35;;
66633;SDS011;53546;52.184;5.596;2023-02-12T08:09:14;4.45;;;2.92;;
66633;SDS011;53546;52.184;5.596;2023-02-12T08:11:41;3.75;;;2.83;;
66633;SDS011;53546;52.184;5.596;2023-02-12T08:14:07;6.35;;;3.20;;
66633;SDS011;53546;52.184;5.596;2023-02-12T08:16:37;4.80;;;3.50;;
66633;SDS011;53546;52.184;5.596;2023-02-12T08:19:03;8.27;;;3.20;;
66633;SDS011;53546;52.184;5.596;2023-02-12T08:21:29;6.82;;;3.10;;
66633;SDS011;53546;52.184;5.596;2023-02-12T08:23:55;6.65;;;3.08;;
66633;SDS011;53546;52.184;5.596;2023-02-12T08:26:29;9.82;;;3.25;;
66633;SDS011;53546;52.184;5.596;2023-02-12T08:28:58;4.00;;;2.92;;
66633;SDS011;53546;52.184;5.596;2023-02-12T08:31:26;6.03;;;3.03;;
66633;SDS011;53546;52.184;5.596;2023-02-12T08:33:53;5.68;;;3.25;;
66633;SDS011;53546;52.184;5.596;2023-02-12T08:36:30;8.68;;;3.10;;
66633;SDS011;53546;52.184;5.596;2023-02-12T08:39:07;7.03;;;3.30;;
66633;SDS011;53546;52.184;5.596;2023-02-12T08:41:33;6.95;;;3.17;;
66633;SDS011;53546;52.184;5.596;2023-02-12T08:43:59;4.20;;;3.15;;
66633;SDS011;53546;52.184;5.596;2023-02-12T08:46:26;6.85;;;3.70;;
66633;SDS011;53546;52.184;5.596;2023-02-12T08:48:54;6.55;;;3.70;;
66633;SDS011;53546;52.184;5.596;2023-02-12T08:51:22;9.82;;;3.38;;
66633;SDS011;53546;52.184;5.596;2023-02-12T08:53:51;4.20;;;3.45;;
66633;SDS011;53546;52.184;5.596;2023-02-12T08:56:18;5.43;;;3.13;;
66633;SDS011;53546;52.184;5.596;2023-02-12T08:58:43;4.63;;;2.95;;
66633;SDS011;53546;52.184;5.596;2023-02-12T09:01:11;4.43;;;3.33;;
66633;SDS011;53546;52.184;5.596;2023-02-12T09:03:40;4.25;;;3.40;;
66633;SDS011;53546;52.184;5.596;2023-02-12T09:06:06;6.82;;;3.63;;
66633;SDS011;53546;52.184;5.596;2023-02-12T09:08:33;6.97;;;3.38;;
66633;SDS011;53546;52.184;5.596;2023-02-12T09:10:58;6.10;;;3.50;;
66633;SDS011;53546;52.184;5.596;2023-02-12T09:13:24;4.28;;;3.10;;
66633;SDS011;53546;52.184;5.596;2023-02-12T09:15:49;4.97;;;3.50;;
66633;SDS011;53546;52.184;5.596;2023-02-12T09:18:15;4.60;;;3.65;;
66633;SDS011;53546;52.184;5.596;2023-02-12T09:20:41;6.88;;;3.78;;
66633;SDS011;53546;52.184;5.596;2023-02-12T09:23:12;6.75;;;3.20;;
66633;SDS011;53546;52.184;5.596;2023-02-12T09:25:42;5.75;;;3.42;;
66633;SDS011;53546;52.184;5.596;2023-02-12T09:28:08;7.68;;;3.90;;
66633;SDS011;53546;52.184;5.596;2023-02-12T09:30:35;14.82;;;4.78;;
66633;SDS011;53546;52.184;5.596;2023-02-12T09:33:01;13.48;;;5.47;;
66633;SDS011;53546;52.184;5.596;2023-02-12T09:35:26;15.90;;;6.28;;
66633;SDS011;53546;52.184;5.596;2023-02-12T09:37:52;14.57;;;5.15;;
66633;SDS011;53546;52.184;5.596;2023-02-12T09:40:21;12.25;;;5.80;;
66633;SDS011;53546;52.184;5.596;2023-02-12T09:43:05;13.95;;;5.45;;
66633;SDS011;53546;52.184;5.596;2023-02-12T09:46:07;11.98;;;4.55;;
66633;SDS011;53546;52.184;5.596;2023-02-12T09:48:44;11.88;;;4.72;;
66633;SDS011;53546;52.184;5.596;2023-02-12T09:51:15;10.07;;;4.57;;
66633;SDS011;53546;52.184;5.596;2023-02-12T09:53:44;12.73;;;4.85;;
66633;SDS011;53546;52.184;5.596;2023-02-12T09:56:18;12.80;;;5.28;;
66633;SDS011;53546;52.184;5.596;2023-02-12T09:58:46;6.40;;;3.83;;
66633;SDS011;53546;52.184;5.596;2023-02-12T10:01:21;10.57;;;4.25;;
66633;SDS011;53546;52.184;5.596;2023-02-12T10:03:47;9.90;;;4.50;;
66633;SDS011;53546;52.184;5.596;2023-02-12T10:06:15;9.38;;;4.13;;
66633;SDS011;53546;52.184;5.596;2023-02-12T10:08:51;11.15;;;5.00;;
66633;SDS011;53546;52.184;5.596;2023-02-12T10:28:37;13.52;;;4.95;;
66633;SDS011;53546;52.184;5.596;2023-02-12T10:31:06;9.40;;;4.53;;
66633;SDS011;53546;52.184;5.596;2023-02-12T10:33:40;14.07;;;4.35;;
66633;SDS011;53546;52.184;5.596;2023-02-12T10:39:11;9.98;;;4.63;;
66633;SDS011;53546;52.184;5.596;2023-02-12T10:41:44;8.52;;;4.35;;
66633;SDS011;53546;52.184;5.596;2023-02-12T10:46:38;6.93;;;3.90;;
66633;SDS011;53546;52.184;5.596;2023-02-12T10:49:04;6.78;;;4.15;;
66633;SDS011;53546;52.184;5.596;2023-02-12T10:56:58;5.85;;;4.28;;
66633;SDS011;53546;52.184;5.596;2023-02-12T10:59:24;7.20;;;4.57;;
66633;SDS011;53546;52.184;5.596;2023-02-12T11:01:50;12.43;;;4.50;;
66633;SDS011;53546;52.184;5.596;2023-02-12T11:06:57;11.57;;;4.95;;
66633;SDS011;53546;52.184;5.596;2023-02-12T11:09:34;6.93;;;4.80;;
66633;SDS011;53546;52.184;5.596;2023-02-12T11:12:30;5.80;;;3.92;;
66633;SDS011;53546;52.184;5.596;2023-02-12T11:15:14;6.68;;;4.38;;
66633;SDS011;53546;52.184;5.596;2023-02-12T11:17:42;6.50;;;4.13;;
66633;SDS011;53546;52.184;5.596;2023-02-12T11:22:57;14.95;;;6.18;;
66633;SDS011;53546;52.184;5.596;2023-02-12T11:25:28;14.50;;;5.65;;
66633;SDS011;53546;52.184;5.596;2023-02-12T11:30:33;10.65;;;5.32;;
66633;SDS011;53546;52.184;5.596;2023-02-12T11:33:20;14.35;;;5.00;;
66633;SDS011;53546;52.184;5.596;2023-02-12T11:35:49;11.65;;;5.30;;
66633;SDS011;53546;52.184;5.596;2023-02-12T11:38:36;10.70;;;5.32;;
66633;SDS011;53546;52.184;5.596;2023-02-12T11:41:48;12.57;;;5.00;;
66633;SDS011;53546;52.184;5.596;2023-02-12T11:43:54;11.15;;;5.07;;
66633;SDS011;53546;52.184;5.596;2023-02-12T11:46:21;7.75;;;4.90;;
66633;SDS011;53546;52.184;5.596;2023-02-12T11:48:48;10.80;;;5.75;;
66633;SDS011;53546;52.184;5.596;2023-02-12T11:51:23;8.55;;;5.03;;
66633;SDS011;53546;52.184;5.596;2023-02-12T11:53:53;10.70;;;4.45;;
66633;SDS011;53546;52.184;5.596;2023-02-12T11:56:24;13.30;;;4.95;;
66633;SDS011;53546;52.184;5.596;2023-02-12T11:58:50;8.75;;;5.30;;
66633;SDS011;53546;52.184;5.596;2023-02-12T12:01:23;12.65;;;5.40;;
66633;SDS011;53546;52.184;5.596;2023-02-12T12:06:45;10.55;;;5.18;;
66633;SDS011;53546;52.184;5.596;2023-02-12T12:09:20;12.63;;;5.50;;
66633;SDS011;53546;52.184;5.596;2023-02-12T12:14:24;14.95;;;5.40;;
66633;SDS011;53546;52.184;5.596;2023-02-12T12:17:04;10.10;;;5.57;;
66633;SDS011;53546;52.184;5.596;2023-02-12T12:20:06;9.35;;;5.40;;
66633;SDS011;53546;52.184;5.596;2023-02-12T12:25:47;11.50;;;5.05;;
66633;SDS011;53546;52.184;5.596;2023-02-12T12:44:51;8.77;;;4.93;;
66633;SDS011;53546;52.184;5.596;2023-02-12T12:47:43;7.40;;;5.38;;
66633;SDS011;53546;52.184;5.596;2023-02-12T12:53:01;8.45;;;5.03;;
66633;SDS011;53546;52.184;5.596;2023-02-12T13:06:59;7.97;;;4.57;;
66633;SDS011;53546;52.184;5.596;2023-02-12T13:09:39;6.97;;;4.93;;
66633;SDS011;53546;52.184;5.596;2023-02-12T13:12:26;7.55;;;4.60;;
66633;SDS011;53546;52.184;5.596;2023-02-12T13:15:20;7.47;;;4.63;;
66633;SDS011;53546;52.184;5.596;2023-02-12T13:23:06;7.70;;;4.55;;
66633;SDS011;53546;52.184;5.596;2023-02-12T13:25:42;8.43;;;4.25;;
66633;SDS011;53546;52.184;5.596;2023-02-12T13:28:34;5.43;;;4.28;;
66633;SDS011;53546;52.184;5.596;2023-02-12T13:31:03;5.82;;;4.07;;
66633;SDS011;53546;52.184;5.596;2023-02-12T13:36:03;5.60;;;3.95;;
66633;SDS011;53546;52.184;5.596;2023-02-12T13:38:32;7.95;;;4.18;;
66633;SDS011;53546;52.184;5.596;2023-02-12T13:41:04;4.78;;;3.72;;
66633;SDS011;53546;52.184;5.596;2023-02-12T13:51:48;5.75;;;3.60;;
66633;SDS011;53546;52.184;5.596;2023-02-12T13:56:45;6.28;;;3.30;;
66633;SDS011;53546;52.184;5.596;2023-02-12T14:05:12;7.93;;;3.88;;
66633;SDS011;53546;52.184;5.596;2023-02-12T14:08:00;4.20;;;3.05;;
66633;SDS011;53546;52.184;5.596;2023-02-12T14:15:49;6.45;;;3.28;;
66633;SDS011;53546;52.184;5.596;2023-02-12T14:23:36;5.65;;;3.38;;
66633;SDS011;53546;52.184;5.596;2023-02-12T14:26:11;4.38;;;3.25;;
66633;SDS011;53546;52.184;5.596;2023-02-12T14:28:51;5.13;;;3.10;;
66633;SDS011;53546;52.184;5.596;2023-02-12T14:33:45;3.55;;;3.15;;
66633;SDS011;53546;52.184;5.596;2023-02-12T14:36:16;3.58;;;3.08;;
66633;SDS011;53546;52.184;5.596;2023-02-12T14:39:26;4.40;;;3.00;;
66633;SDS011;53546;52.184;5.596;2023-02-12T14:41:53;7.97;;;3.83;;
66633;SDS011;53546;52.184;5.596;2023-02-12T14:46:57;3.92;;;3.17;;
66633;SDS011;53546;52.184;5.596;2023-02-12T14:49:55;3.70;;;3.00;;
66633;SDS011;53546;52.184;5.596;2023-02-12T14:52:23;4.85;;;2.67;;
66633;SDS011;53546;52.184;5.596;2023-02-12T14:57:39;7.55;;;2.72;;
66633;SDS011;53546;52.184;5.596;2023-02-12T15:07:54;4.93;;;2.75;;
66633;SDS011;53546;52.184;5.596;2023-02-12T15:10:26;3.10;;;2.80;;
66633;SDS011;53546;52.184;5.596;2023-02-12T15:13:00;5.78;;;2.80;;
66633;SDS011;53546;52.184;5.596;2023-02-12T15:15:32;3.63;;;2.55;;
66633;SDS011;53546;52.184;5.596;2023-02-12T15:18:01;4.20;;;3.10;;
66633;SDS011;53546;52.184;5.596;2023-02-12T15:20:37;2.75;;;2.55;;
66633;SDS011;53546;52.184;5.596;2023-02-12T15:25:59;4.80;;;2.95;;
66633;SDS011;53546;52.184;5.596;2023-02-12T15:28:29;6.15;;;2.95;;
66633;SDS011;53546;52.184;5.596;2023-02-12T15:30:58;7.15;;;2.92;;
66633;SDS011;53546;52.184;5.596;2023-02-12T15:33:30;4.03;;;2.72;;
66633;SDS011;53546;52.184;5.596;2023-02-12T15:35:57;4.88;;;3.13;;
66633;SDS011;53546;52.184;5.596;2023-02-12T15:38:33;5.38;;;3.50;;
66633;SDS011;53546;52.184;5.596;2023-02-12T15:41:00;7.03;;;3.58;;
66633;SDS011;53546;52.184;5.596;2023-02-12T15:43:30;6.80;;;3.00;;
66633;SDS011;53546;52.184;5.596;2023-02-12T15:45:59;7.32;;;2.95;;
66633;SDS011;53546;52.184;5.596;2023-02-12T15:48:30;8.23;;;3.30;;
66633;SDS011;53546;52.184;5.596;2023-02-12T15:53:28;4.05;;;2.65;;
66633;SDS011;53546;52.184;5.596;2023-02-12T15:55:57;7.55;;;3.20;;
66633;SDS011;53546;52.184;5.596;2023-02-12T15:58:27;5.28;;;2.80;;
66633;SDS011;53546;52.184;5.596;2023-02-12T16:01:03;6.75;;;2.80;;
66633;SDS011;53546;52.184;5.596;2023-02-12T16:03:31;4.93;;;2.95;;
66633;SDS011;53546;52.184;5.596;2023-02-12T16:06:04;5.18;;;2.40;;
66633;SDS011;53546;52.184;5.596;2023-02-12T16:08:35;5.32;;;2.70;;
66633;SDS011;53546;52.184;5.596;2023-02-12T16:11:01;3.30;;;2.65;;
66633;SDS011;53546;52.184;5.596;2023-02-12T16:13:37;3.55;;;2.33;;
66633;SDS011;53546;52.184;5.596;2023-02-12T16:18:40;3.58;;;2.50;;
66633;SDS011;53546;52.184;5.596;2023-02-12T16:21:10;3.30;;;2.55;;
66633;SDS011;53546;52.184;5.596;2023-02-12T16:23:38;3.20;;;2.40;;
66633;SDS011;53546;52.184;5.596;2023-02-12T16:26:05;3.40;;;2.70;;
66633;SDS011;53546;52.184;5.596;2023-02-12T16:28:31;3.88;;;2.95;;
66633;SDS011;53546;52.184;5.596;2023-02-12T16:31:07;4.53;;;2.88;;
66633;SDS011;53546;52.184;5.596;2023-02-12T16:33:40;4.93;;;2.90;;
66633;SDS011;53546;52.184;5.596;2023-02-12T16:38:48;4.53;;;3.00;;
66633;SDS011;53546;52.184;5.596;2023-02-12T16:46:23;5.78;;;2.90;;
66633;SDS011;53546;52.184;5.596;2023-02-12T16:48:49;3.63;;;2.80;;
66633;SDS011;53546;52.184;5.596;2023-02-12T16:51:23;3.38;;;2.80;;
66633;SDS011;53546;52.184;5.596;2023-02-12T16:53:54;3.65;;;2.67;;
66633;SDS011;53546;52.184;5.596;2023-02-12T16:56:22;3.65;;;2.60;;
66633;SDS011;53546;52.184;5.596;2023-02-12T16:58:50;2.97;;;2.67;;
66633;SDS011;53546;52.184;5.596;2023-02-12T17:01:21;4.13;;;2.85;;
66633;SDS011;53546;52.184;5.596;2023-02-12T17:03:53;3.30;;;2.88;;
66633;SDS011;53546;52.184;5.596;2023-02-12T17:06:20;5.85;;;2.90;;
66633;SDS011;53546;52.184;5.596;2023-02-12T17:08:47;3.33;;;2.50;;
66633;SDS011;53546;52.184;5.596;2023-02-12T17:11:13;4.50;;;2.85;;
66633;SDS011;53546;52.184;5.596;2023-02-12T17:13:41;4.72;;;2.80;;
66633;SDS011;53546;52.184;5.596;2023-02-12T17:16:07;3.60;;;2.83;;
66633;SDS011;53546;52.184;5.596;2023-02-12T17:18:32;4.13;;;3.10;;
66633;SDS011;53546;52.184;5.596;2023-02-12T17:21:04;4.15;;;3.10;;
66633;SDS011;53546;52.184;5.596;2023-02-12T17:23:31;3.55;;;3.20;;
66633;SDS011;53546;52.184;5.596;2023-02-12T17:25:57;4.68;;;3.58;;
66633;SDS011;53546;52.184;5.596;2023-02-12T17:28:23;3.90;;;3.00;;
66633;SDS011;53546;52.184;5.596;2023-02-12T17:30:49;4.80;;;3.25;;
66633;SDS011;53546;52.184;5.596;2023-02-12T17:33:16;5.63;;;2.92;;
66633;SDS011;53546;52.184;5.596;2023-02-12T17:35:41;3.60;;;2.97;;
66633;SDS011;53546;52.184;5.596;2023-02-12T17:38:07;4.45;;;3.53;;
66633;SDS011;53546;52.184;5.596;2023-02-12T17:40:35;4.40;;;3.33;;
66633;SDS011;53546;52.184;5.596;2023-02-12T17:43:02;5.18;;;3.90;;
66633;SDS011;53546;52.184;5.596;2023-02-12T17:45:28;7.70;;;3.60;;
66633;SDS011;53546;52.184;5.596;2023-02-12T17:47:53;6.28;;;3.70;;
66633;SDS011;53546;52.184;5.596;2023-02-12T17:50:19;4.85;;;3.55;;
66633;SDS011;53546;52.184;5.596;2023-02-12T17:52:44;5.10;;;4.30;;
66633;SDS011;53546;52.184;5.596;2023-02-12T17:55:10;4.65;;;3.38;;
66633;SDS011;53546;52.184;5.596;2023-02-12T17:57:37;4.43;;;3.53;;